Time;durP1;ratioP1;P1;durP2;ratioP2;P2;SDS_P1;SDS_P2;PMS_P1;PMS_P2;Temp;Humidity;BMP_temperature;BMP_pressure;BME280_temperature;BME280_humidity;BME280_pressure;Samples;Min_cycle;Max_cycle;Signal;HPM_P1;HPM_P2
2022/12/22 03:25:53;;;;;;;3.90;3.60;;;;;;;10.14;100.00;99126.03;10365993;28;20049;-73
2022/12/22 03:31:01;;;;;;;4.63;2.95;;;;;;;10.14;100.00;99116.22;10369422;28;20057;-70
2022/12/22 03:36:03;;;;;;;3.70;3.13;;;;;;;10.16;100.00;99122.22;10363418;28;21554;-71
2022/12/22 03:41:05;;;;;;;2.90;2.63;;;;;;;10.17;100.00;99102.63;10358549;28;20041;-70
2022/12/22 03:46:29;;;;;;;3.50;2.90;;;;;;;10.20;100.00;99106.81;10356844;28;20642;-71
2022/12/22 03:51:32;;;;;;;3.75;3.08;;;;;;;10.21;100.00;99085.41;10354357;28;20046;-70
2022/12/22 03:56:33;;;;;;;2.90;2.35;;;;;;;10.28;100.00;99074.97;10363491;28;20133;-69
2022/12/22 04:01:40;;;;;;;3.75;2.80;;;;;;;10.33;100.00;99085.16;10352846;28;20067;-71
2022/12/22 04:06:43;;;;;;;3.15;2.20;;;;;;;10.31;100.00;99071.19;10343404;28;20131;-70
2022/12/22 04:17:06;;;;;;;3.33;2.30;;;;;;;10.33;100.00;99063.88;10370472;28;20119;-71
2022/12/22 04:22:07;;;;;;;3.22;2.33;;;;;;;10.35;100.00;99062.78;10352793;28;20137;-72
2022/12/22 04:27:08;;;;;;;4.05;2.40;;;;;;;10.34;100.00;99060.28;10362820;28;20474;-69
2022/12/22 04:32:10;;;;;;;2.33;2.10;;;;;;;10.31;100.00;99047.25;10364572;28;20069;-70
2022/12/22 04:37:11;;;;;;;6.10;3.33;;;;;;;10.33;100.00;99037.28;10361754;28;20129;-72
2022/12/22 04:42:18;;;;;;;3.45;2.13;;;;;;;10.37;100.00;99028.06;10363108;28;20049;-73
2022/12/22 04:47:19;;;;;;;2.97;2.08;;;;;;;10.37;100.00;99044.88;10364142;28;20104;-72
2022/12/22 04:52:22;;;;;;;4.93;2.55;;;;;;;10.32;100.00;99038.28;10361817;28;20122;-72
2022/12/22 04:57:23;;;;;;;4.70;2.20;;;;;;;10.31;100.00;99034.78;10366902;28;20052;-72
2022/12/22 05:02:25;;;;;;;3.40;2.38;;;;;;;10.29;100.00;99014.66;10363414;28;20068;-71
2022/12/22 05:07:26;;;;;;;2.15;1.77;;;;;;;10.32;100.00;99019.69;10346751;28;20432;-71
2022/12/22 05:17:48;;;;;;;3.78;1.85;;;;;;;10.29;100.00;99001.38;10363176;28;20077;-73
2022/12/22 05:22:49;;;;;;;4.18;2.75;;;;;;;9.98;100.00;98937.91;10351183;28;20574;-68
2022/12/22 05:27:51;;;;;;;4.30;1.90;;;;;;;10.33;100.00;98994.72;10361538;28;20132;-69
2022/12/22 05:32:52;;;;;;;6.03;2.72;;;;;;;10.29;100.00;98993.38;10356355;28;20159;-74
2022/12/22 05:37:54;;;;;;;3.35;2.10;;;;;;;10.27;100.00;98991.69;10370566;28;20774;-71
2022/12/22 05:42:55;;;;;;;5.43;2.60;;;;;;;10.15;100.00;98971.66;10367519;28;20100;-77
2022/12/22 05:47:56;;;;;;;6.32;2.38;;;;;;;10.19;100.00;98993.44;10374871;28;20052;-72
2022/12/22 05:52:58;;;;;;;4.00;2.00;;;;;;;10.16;100.00;98973.31;10364498;28;20068;-74
2022/12/22 05:58:00;;;;;;;2.63;1.73;;;;;;;10.15;100.00;98965.47;10352027;28;20064;-75
2022/12/22 06:03:02;;;;;;;2.75;2.05;;;;;;;10.14;100.00;98958.50;10343051;28;20115;-73
2022/12/22 06:08:04;;;;;;;3.83;2.05;;;;;;;10.20;100.00;98953.41;10356107;28;20055;-69
2022/12/22 06:13:05;;;;;;;1.83;1.48;;;;;;;10.24;100.00;98964.59;10366367;28;20065;-72
2022/12/22 06:18:06;;;;;;;1.48;1.10;;;;;;;10.27;100.00;98958.97;10359104;28;20128;-73
2022/12/22 06:23:08;;;;;;;2.97;1.65;;;;;;;10.23;100.00;98936.31;10351269;28;20068;-72
2022/12/22 06:28:09;;;;;;;2.45;1.25;;;;;;;10.25;100.00;98947.63;10349153;28;20057;-74
2022/12/22 06:33:11;;;;;;;1.75;1.00;;;;;;;10.30;100.00;98936.53;10334801;28;21538;-72
2022/12/22 06:38:12;;;;;;;2.05;0.82;;;;;;;10.38;100.00;98936.63;10352206;28;20145;-72
2022/12/22 06:43:13;;;;;;;1.73;0.80;;;;;;;10.35;100.00;98940.44;10335478;28;20475;-71
2022/12/22 06:48:15;;;;;;;3.42;1.00;;;;;;;10.33;100.00;98941.53;10351973;28;20566;-70
2022/12/22 06:53:16;;;;;;;1.15;0.75;;;;;;;10.43;100.00;98958.28;10352536;28;20068;-70
2022/12/22 06:58:18;;;;;;;2.80;1.00;;;;;;;10.42;100.00;98945.97;10354402;28;20050;-69
2022/12/22 07:03:19;;;;;;;1.77;0.63;;;;;;;10.48;100.00;98945.38;10351209;28;20059;-70
2022/12/22 07:08:21;;;;;;;1.20;0.65;;;;;;;10.47;100.00;98941.03;10363508;28;20809;-69
2022/12/22 07:13:25;;;;;;;3.55;0.70;;;;;;;10.51;100.00;98958.34;10371594;28;20053;-69
2022/12/22 07:18:33;;;;;;;2.60;0.60;;;;;;;10.57;100.00;98960.41;10358777;28;20492;-73
2022/12/22 07:23:34;;;;;;;2.05;0.55;;;;;;;10.58;100.00;98970.06;10376708;28;20408;-72
2022/12/22 07:28:38;;;;;;;2.00;1.30;;;;;;;10.58;100.00;98972.72;10358869;28;20187;-71
2022/12/22 07:33:39;;;;;;;1.58;0.60;;;;;;;10.59;100.00;98985.00;10347987;28;20046;-69
2022/12/22 07:38:44;;;;;;;2.38;0.52;;;;;;;10.53;100.00;98968.84;10357995;28;20064;-70
2022/12/22 07:43:45;;;;;;;3.75;0.70;;;;;;;10.56;100.00;98979.19;10343041;28;20073;-70
2022/12/22 07:54:09;;;;;;;2.25;0.77;;;;;;;10.54;100.00;98979.34;10353975;28;20053;-72
2022/12/22 07:59:11;;;;;;;2.97;0.80;;;;;;;10.52;100.00;98967.97;10355350;28;20053;-70
2022/12/22 08:04:14;;;;;;;3.35;1.33;;;;;;;10.54;100.00;98976.66;10350035;28;20064;-69
2022/12/22 08:09:17;;;;;;;3.20;1.55;;;;;;;10.60;100.00;98977.88;10357196;28;20211;-70
2022/12/22 08:14:18;;;;;;;2.03;1.10;;;;;;;10.51;100.00;98961.00;10353476;28;20119;-72
2022/12/22 08:19:19;;;;;;;3.05;1.00;;;;;;;10.49;100.00;98956.84;10353949;28;20782;-69
2022/12/22 08:24:21;;;;;;;3.20;1.02;;;;;;;10.52;100.00;98954.69;10351872;28;20084;-71
2022/12/22 08:29:27;;;;;;;4.07;1.13;;;;;;;10.56;100.00;98958.72;10351255;28;20050;-69
2022/12/22 08:34:29;;;;;;;3.65;1.02;;;;;;;10.52;100.00;98962.66;10351048;28;20515;-69
2022/12/22 08:39:36;;;;;;;2.10;0.90;;;;;;;10.54;100.00;98960.72;10355929;28;20653;-71
2022/12/22 08:44:40;;;;;;;5.68;0.80;;;;;;;10.62;100.00;98962.59;10341850;28;20048;-69
2022/12/22 08:49:42;;;;;;;6.53;0.90;;;;;;;10.60;100.00;98961.91;10341152;28;20054;-69
2022/12/22 08:54:43;;;;;;;2.78;0.90;;;;;;;10.60;100.00;98960.09;10358274;28;21605;-74
2022/12/22 08:59:46;;;;;;;2.15;0.73;;;;;;;10.57;100.00;98962.22;10338055;28;20058;-71
2022/12/22 09:04:48;;;;;;;2.15;0.80;;;;;;;10.57;100.00;98963.06;10335120;28;20056;-72
2022/12/22 09:09:50;;;;;;;1.75;0.70;;;;;;;10.63;100.00;98980.22;10352170;28;20068;-70
2022/12/22 09:14:51;;;;;;;4.30;1.33;;;;;;;10.66;100.00;98974.59;10351068;28;20141;-70
2022/12/22 09:19:53;;;;;;;3.53;1.10;;;;;;;10.61;100.00;98985.72;10335213;28;20131;-69
2022/12/22 09:24:54;;;;;;;5.07;1.52;;;;;;;10.58;100.00;98996.66;10348581;28;20061;-70
2022/12/22 09:29:55;;;;;;;4.38;1.75;;;;;;;10.52;100.00;99004.41;10350197;28;20060;-71
2022/12/22 09:34:57;;;;;;;5.32;1.13;;;;;;;10.57;100.00;99010.94;10348787;28;20583;-70
2022/12/22 09:39:58;;;;;;;6.18;2.00;;;;;;;10.63;100.00;99021.94;10350826;28;20045;-70
2022/12/22 09:45:00;;;;;;;6.30;1.63;;;;;;;10.60;100.00;99026.59;10363100;28;20125;-72
2022/12/22 09:50:03;;;;;;;4.93;1.30;;;;;;;10.60;100.00;99031.09;10339768;28;20116;-71
2022/12/22 09:55:31;;;;;;;7.13;2.03;;;;;;;10.58;100.00;99028.59;10351089;28;21432;-71
2022/12/22 10:00:34;;;;;;;6.10;1.88;;;;;;;10.57;100.00;99024.25;10338485;28;20045;-72
2022/12/22 10:05:52;;;;;;;5.45;1.80;;;;;;;10.73;100.00;99041.34;10348184;28;20049;-71
2022/12/22 10:10:55;;;;;;;5.78;1.83;;;;;;;10.77;100.00;99056.00;10349459;28;20124;-76
2022/12/22 10:15:57;;;;;;;5.15;1.48;;;;;;;10.79;100.00;99062.00;10351157;28;20060;-70
2022/12/22 10:21:12;;;;;;;3.63;1.33;;;;;;;10.75;100.00;99066.00;10348992;28;20054;-71
2022/12/22 10:26:27;;;;;;;4.63;1.27;;;;;;;10.73;100.00;99070.63;10346950;28;20056;-70
2022/12/22 10:31:34;;;;;;;5.75;1.60;;;;;;;10.77;100.00;99077.31;10347835;28;20041;-71
2022/12/22 10:36:37;;;;;;;6.40;1.98;;;;;;;10.82;100.00;99085.66;10354153;28;20050;-72
2022/12/22 10:41:46;;;;;;;4.32;1.10;;;;;;;11.04;100.00;99086.19;10340916;28;20081;-74
2022/12/22 10:46:50;;;;;;;5.40;1.27;;;;;;;11.06;100.00;99084.19;10350138;28;20064;-74
2022/12/22 10:52:14;;;;;;;7.38;1.60;;;;;;;11.33;100.00;99088.53;10337328;28;20672;-71
2022/12/22 10:57:15;;;;;;;3.20;1.45;;;;;;;11.62;100.00;99096.22;10368447;28;20602;-72
2022/12/22 11:02:19;;;;;;;5.80;1.80;;;;;;;11.71;100.00;99106.91;10386424;28;20083;-73
2022/12/22 11:07:23;;;;;;;3.75;1.60;;;;;;;11.64;100.00;99112.03;10393588;28;20037;-69
2022/12/22 11:12:48;;;;;;;3.20;1.05;;;;;;;11.66;100.00;99121.56;10366964;28;20130;-73
2022/12/22 11:18:18;;;;;;;4.85;1.30;;;;;;;11.61;100.00;99137.16;10331657;28;20077;-72
2022/12/22 11:23:19;;;;;;;1.80;0.90;;;;;;;11.70;100.00;99150.56;10352388;28;20452;-70
2022/12/22 11:28:34;;;;;;;4.43;1.63;;;;;;;11.73;100.00;99158.25;10326889;28;21492;-78
2022/12/22 11:33:57;;;;;;;3.65;0.93;;;;;;;11.94;100.00;99166.72;10346507;28;20057;-72
2022/12/22 11:39:14;;;;;;;3.17;1.17;;;;;;;11.89;100.00;99163.66;10331415;28;20049;-70
2022/12/22 11:44:38;;;;;;;2.92;1.40;;;;;;;12.05;100.00;99167.44;10343545;28;20057;-69
2022/12/22 11:50:01;;;;;;;3.08;1.83;;;;;;;11.96;100.00;99180.72;10346562;28;20053;-73
2022/12/22 11:55:34;;;;;;;4.63;1.23;;;;;;;11.80;100.00;99188.59;10346581;28;20596;-68
2022/12/22 12:00:44;;;;;;;4.20;1.17;;;;;;;11.99;100.00;99207.09;10335777;28;20122;-68
2022/12/22 12:06:30;;;;;;;4.32;0.98;;;;;;;11.91;100.00;99214.19;10354837;28;20061;-69
2022/12/22 12:11:41;;;;;;;2.75;0.93;;;;;;;11.96;100.00;99222.56;10332886;28;20095;-70
2022/12/22 12:16:50;;;;;;;5.50;1.05;;;;;;;12.02;100.00;99233.44;10352802;28;20572;-70
2022/12/22 12:21:54;;;;;;;3.80;1.63;;;;;;;12.15;100.00;99238.34;10355442;28;20049;-71
2022/12/22 12:27:15;;;;;;;3.28;1.55;;;;;;;12.12;100.00;99259.16;10344428;28;20049;-72
2022/12/22 12:32:27;;;;;;;2.42;0.98;;;;;;;12.05;100.00;99263.44;10343191;28;20133;-71
2022/12/22 12:37:35;;;;;;;1.77;0.95;;;;;;;11.98;100.00;99272.09;10353095;28;20053;-72
2022/12/22 12:42:43;;;;;;;2.83;0.98;;;;;;;11.93;100.00;99276.22;10354192;28;20516;-72
2022/12/22 12:47:45;;;;;;;1.15;0.70;;;;;;;11.97;100.00;99283.75;10353613;28;20045;-73
2022/12/22 12:52:47;;;;;;;2.38;0.80;;;;;;;11.99;100.00;99292.44;10339488;28;20425;-72
2022/12/22 12:57:49;;;;;;;3.35;1.45;;;;;;;12.03;100.00;99295.63;10353856;28;20049;-71
2022/12/22 13:02:58;;;;;;;1.02;0.70;;;;;;;12.07;100.00;99298.78;10359438;28;20056;-72
2022/12/22 13:08:14;;;;;;;1.77;0.93;;;;;;;12.12;100.00;99312.53;10351657;28;20056;-75
2022/12/22 13:13:21;;;;;;;1.85;1.00;;;;;;;12.05;100.00;99332.81;10349287;28;20059;-77
2022/12/22 13:18:28;;;;;;;1.40;0.50;;;;;;;12.06;100.00;99347.81;10369901;28;20128;-74
2022/12/22 13:23:53;;;;;;;3.20;1.40;;;;;;;11.97;99.80;99357.59;10373502;28;20091;-73
2022/12/22 13:29:21;;;;;;;1.35;0.65;;;;;;;11.91;97.84;99371.50;10360991;28;20509;-79
2022/12/22 13:34:45;;;;;;;9.38;1.92;;;;;;;11.88;96.52;99366.47;10356934;28;20052;-74
2022/12/22 13:40:15;;;;;;;2.70;0.90;;;;;;;11.84;96.16;99379.28;10342191;28;20049;-72
2022/12/22 13:45:42;;;;;;;1.20;0.73;;;;;;;11.84;97.06;99379.28;10336325;28;20122;-75
2022/12/22 13:50:48;;;;;;;1.30;0.93;;;;;;;11.79;95.05;99384.22;10352876;28;20136;-71
2022/12/22 13:55:50;;;;;;;2.05;1.05;;;;;;;11.79;95.22;99386.91;10348257;28;20519;-73
2022/12/22 14:01:10;;;;;;;1.58;1.20;;;;;;;11.67;95.34;99388.94;10350113;28;20053;-72
2022/12/22 14:06:34;;;;;;;1.45;1.08;;;;;;;11.57;96.43;99390.84;10351892;28;20064;-70
2022/12/22 14:11:36;;;;;;;1.00;0.70;;;;;;;11.46;98.38;99397.22;10352259;28;20704;-72
2022/12/22 14:16:44;;;;;;;2.78;1.38;;;;;;;11.45;100.00;99391.06;10358811;28;20048;-72
2022/12/22 14:21:51;;;;;;;2.28;1.20;;;;;;;11.45;98.87;99400.88;10335310;28;20056;-75
2022/12/22 14:26:53;;;;;;;2.97;0.70;;;;;;;11.40;99.57;99413.81;10350884;28;20665;-73
2022/12/22 14:32:01;;;;;;;1.90;1.02;;;;;;;11.23;100.00;99413.63;10332708;28;20445;-75
2022/12/22 14:37:02;;;;;;;1.65;0.80;;;;;;;11.19;100.00;99417.56;10356718;28;20076;-74
2022/12/22 14:42:12;;;;;;;1.02;0.90;;;;;;;11.14;100.00;99419.84;10342741;28;20219;-71
2022/12/22 14:47:20;;;;;;;2.20;1.20;;;;;;;11.12;100.00;99422.66;10352301;28;20057;-72
2022/12/22 14:52:32;;;;;;;1.50;0.98;;;;;;;11.04;100.00;99430.53;10350456;28;20830;-72
2022/12/22 14:57:41;;;;;;;1.15;0.63;;;;;;;10.94;100.00;99435.91;10352685;28;20057;-72
2022/12/22 15:02:50;;;;;;;0.90;0.40;;;;;;;10.87;100.00;99434.81;10355861;28;20055;-74
2022/12/22 15:07:54;;;;;;;0.55;0.30;;;;;;;10.77;99.18;99434.00;10351016;28;20100;-77
2022/12/22 15:13:23;;;;;;;1.17;0.60;;;;;;;10.81;99.21;99432.75;10335162;28;20064;-72
2022/12/22 15:18:26;;;;;;;1.65;0.30;;;;;;;10.81;97.93;99439.88;10348074;28;20045;-74
2022/12/22 15:23:28;;;;;;;1.23;0.55;;;;;;;10.79;97.29;99432.03;10349010;28;20073;-79
2022/12/22 15:28:30;;;;;;;0.55;0.40;;;;;;;10.64;96.56;99434.31;10360625;28;20640;-74
2022/12/22 15:33:32;;;;;;;0.60;0.40;;;;;;;10.66;95.72;99434.16;10353542;28;20131;-74
2022/12/22 15:38:33;;;;;;;0.90;0.50;;;;;;;10.70;95.43;99456.84;10342156;28;20158;-73
2022/12/22 15:43:39;;;;;;;1.02;0.38;;;;;;;10.67;93.99;99449.97;10354082;28;20067;-74
2022/12/22 15:48:59;;;;;;;1.55;0.50;;;;;;;10.59;94.03;99442.72;10356850;28;20045;-72
2022/12/22 15:54:02;;;;;;;1.63;0.25;;;;;;;10.58;93.27;99451.72;10352781;28;20049;-73
2022/12/22 15:59:03;;;;;;;1.10;0.82;;;;;;;10.62;92.74;99457.56;10337736;28;20056;-72
2022/12/22 16:04:05;;;;;;;1.63;0.70;;;;;;;10.50;93.67;99459.56;10350777;28;20523;-71
2022/12/22 16:09:19;;;;;;;2.10;1.10;;;;;;;10.50;92.88;99451.56;10356419;28;20085;-71
2022/12/22 16:14:21;;;;;;;1.48;0.65;;;;;;;10.45;91.92;99440.53;10353985;28;21525;-70
2022/12/22 16:19:23;;;;;;;0.70;0.60;;;;;;;10.51;92.47;99449.72;10351760;28;20179;-69
2022/12/22 16:24:28;;;;;;;1.73;0.52;;;;;;;10.40;94.84;99450.75;10352462;28;20045;-70
2022/12/22 16:29:30;;;;;;;2.50;0.50;;;;;;;10.25;96.91;99445.84;10351059;28;20053;-71
2022/12/22 16:34:31;;;;;;;1.58;0.43;;;;;;;10.25;97.37;99443.19;10351489;28;20204;-72
2022/12/22 16:39:33;;;;;;;2.13;1.00;;;;;;;10.25;98.52;99435.19;10342882;28;20138;-71
2022/12/22 16:44:34;;;;;;;1.70;0.80;;;;;;;10.35;98.41;99437.03;10355157;28;20053;-73
2022/12/22 16:49:54;;;;;;;2.55;1.50;;;;;;;10.26;98.42;99447.50;10339634;28;20053;-73
2022/12/22 16:54:55;;;;;;;7.35;4.97;;;;;;;10.22;99.63;99435.50;10352265;28;21021;-73
2022/12/22 16:59:56;;;;;;;2.67;0.90;;;;;;;10.23;98.31;99439.81;10349312;28;20065;-69
2022/12/22 17:05:00;;;;;;;1.70;1.10;;;;;;;10.12;98.97;99436.44;10334298;28;20053;-73
2022/12/22 17:10:02;;;;;;;1.23;1.07;;;;;;;10.09;99.42;99430.44;10349047;28;20057;-75
2022/12/22 17:15:03;;;;;;;2.38;1.52;;;;;;;10.16;98.78;99422.72;10349010;28;20053;-72
2022/12/22 17:20:05;;;;;;;3.63;1.58;;;;;;;10.22;98.24;99431.97;10351311;28;20060;-71
2022/12/22 17:25:16;;;;;;;2.33;1.30;;;;;;;10.24;98.02;99414.91;10345654;28;20595;-72
2022/12/22 17:30:20;;;;;;;2.17;1.65;;;;;;;10.26;97.17;99410.25;10343411;28;20054;-74
2022/12/22 17:35:27;;;;;;;2.67;1.23;;;;;;;10.22;97.49;99403.56;10341887;28;20582;-73
2022/12/22 17:40:33;;;;;;;3.53;2.03;;;;;;;10.15;97.26;99394.47;10345183;28;20507;-73
2022/12/22 17:45:34;;;;;;;1.90;1.08;;;;;;;10.08;98.04;99380.88;10343501;28;20110;-71
2022/12/22 17:50:36;;;;;;;2.88;1.58;;;;;;;10.15;98.37;99386.50;10339169;28;20063;-70
2022/12/22 17:55:37;;;;;;;3.10;1.50;;;;;;;10.21;98.26;99383.25;10342573;28;20064;-71
2022/12/22 18:00:58;;;;;;;4.05;1.80;;;;;;;10.15;98.24;99359.91;10346442;28;20053;-71
2022/12/22 18:06:00;;;;;;;3.10;1.80;;;;;;;10.18;99.25;99361.44;10333153;28;20053;-71
2022/12/22 18:11:01;;;;;;;2.53;1.70;;;;;;;10.20;99.72;99347.00;10346389;28;20167;-72
2022/12/22 18:16:03;;;;;;;5.55;3.38;;;;;;;10.18;100.00;99348.97;10346685;28;20057;-74
2022/12/22 18:21:04;;;;;;;5.35;3.22;;;;;;;10.14;100.00;99336.94;10345454;28;21528;-70
2022/12/22 18:26:17;;;;;;;4.97;3.10;;;;;;;10.17;100.00;99334.00;10346895;28;20153;-71
2022/12/22 18:31:20;;;;;;;5.35;3.17;;;;;;;10.17;100.00;99325.19;10343210;28;20905;-72
2022/12/22 18:36:29;;;;;;;5.55;3.28;;;;;;;10.20;100.00;99328.38;10345569;28;20166;-71
2022/12/22 18:41:34;;;;;;;6.10;3.58;;;;;;;10.26;100.00;99325.16;10344345;28;20136;-72
2022/12/22 18:46:35;;;;;;;;;;;;;;;10.20;100.00;99320.41;10343882;28;20148;-71
2022/12/22 18:51:37;;;;;;;8.55;4.65;;;;;;;10.17;100.00;99304.75;10346622;28;20610;-71
2022/12/22 18:56:38;;;;;;;8.38;4.35;;;;;;;10.20;100.00;99304.44;10335620;28;20050;-72
2022/12/22 19:01:40;;;;;;;8.90;4.40;;;;;;;10.15;100.00;99301.41;10325102;28;20701;-74
2022/12/22 19:06:41;;;;;;;12.48;5.30;;;;;;;10.16;100.00;99295.06;10338286;28;20058;-73
2022/12/22 19:11:43;;;;;;;10.32;5.05;;;;;;;10.21;100.00;99290.19;10352055;28;20406;-72
2022/12/22 19:16:46;;;;;;;10.07;4.97;;;;;;;10.21;100.00;99268.91;10351764;28;20053;-73
2022/12/22 19:21:48;;;;;;;16.42;6.47;;;;;;;10.25;100.00;99272.97;10355777;28;20161;-73
2022/12/22 19:26:49;;;;;;;16.25;6.43;;;;;;;10.32;100.00;99264.38;10351265;28;20551;-75
2022/12/22 19:31:51;;;;;;;12.18;5.90;;;;;;;10.25;100.00;99264.13;10354057;28;20073;-75
2022/12/22 19:36:52;;;;;;;14.27;5.43;;;;;;;10.25;100.00;99262.31;10357839;28;20666;-70
2022/12/22 19:41:54;;;;;;;14.15;5.90;;;;;;;10.30;100.00;99256.56;10362471;28;20161;-69
2022/12/22 19:47:00;;;;;;;18.08;6.05;;;;;;;10.29;100.00;99254.88;10356145;28;20044;-74
2022/12/22 19:52:02;;;;;;;21.52;7.20;;;;;;;10.31;100.00;99241.44;10355704;28;20053;-72
2022/12/22 19:57:12;;;;;;;20.65;7.40;;;;;;;10.34;100.00;99234.00;10354049;28;20045;-71
2022/12/22 20:02:19;;;;;;;17.05;6.00;;;;;;;10.31;100.00;99225.47;10354841;28;20138;-71
2022/12/22 20:07:24;;;;;;;18.48;7.47;;;;;;;10.25;100.00;99222.41;10350515;28;20128;-72
2022/12/22 20:12:34;;;;;;;18.15;6.18;;;;;;;10.24;100.00;99217.25;10333507;28;20069;-71
2022/12/22 20:17:36;;;;;;;15.43;6.13;;;;;;;10.28;100.00;99218.59;10356568;28;20065;-72
2022/12/22 20:22:38;;;;;;;20.02;6.80;;;;;;;10.28;100.00;99200.00;10351128;28;20064;-72
2022/12/22 20:27:39;;;;;;;18.20;6.43;;;;;;;10.27;100.00;99198.34;10351188;28;21511;-73
2022/12/22 20:32:41;;;;;;;16.90;6.32;;;;;;;10.27;100.00;99190.34;10336189;28;20049;-71
2022/12/22 20:37:42;;;;;;;16.42;6.15;;;;;;;10.28;100.00;99194.66;10347686;28;20058;-73
2022/12/22 20:42:43;;;;;;;22.20;5.85;;;;;;;10.29;100.00;99184.88;10349732;28;20661;-72
2022/12/22 20:47:45;;;;;;;21.77;6.57;;;;;;;10.29;100.00;99184.88;10337927;28;20057;-69
2022/12/22 20:52:47;;;;;;;20.17;7.18;;;;;;;10.17;100.00;99166.44;10349078;28;20073;-71
2022/12/22 20:57:49;;;;;;;20.95;8.15;;;;;;;10.27;100.00;99177.06;10345342;28;20444;-71
2022/12/22 21:02:51;;;;;;;15.40;5.88;;;;;;;10.24;100.00;99175.53;10328590;28;20058;-73
2022/12/22 21:07:53;;;;;;;18.80;6.03;;;;;;;10.20;100.00;99162.66;10338194;28;20049;-72
2022/12/22 21:12:54;;;;;;;15.88;5.75;;;;;;;10.16;100.00;99159.44;10332370;28;20061;-70
2022/12/22 21:17:56;;;;;;;17.63;4.97;;;;;;;10.12;100.00;99158.09;10358303;28;20140;-70
2022/12/22 21:22:59;;;;;;;14.85;5.70;;;;;;;10.17;100.00;99150.50;10355321;28;20048;-70
2022/12/22 21:28:01;;;;;;;15.02;4.85;;;;;;;10.27;100.00;99155.78;10350788;28;20077;-70
2022/12/22 21:33:02;;;;;;;12.38;4.65;;;;;;;10.20;100.00;99155.53;10342816;28;20112;-70
2022/12/22 21:38:04;;;;;;;12.48;5.35;;;;;;;10.20;100.00;99141.41;10343040;28;20561;-72
2022/12/22 21:43:10;;;;;;;10.23;5.07;;;;;;;10.14;100.00;99134.00;10347373;28;20210;-72
2022/12/22 21:48:18;;;;;;;10.82;5.65;;;;;;;10.25;100.00;99134.66;10335669;28;20456;-72
2022/12/22 21:53:19;;;;;;;10.90;5.78;;;;;;;10.22;100.00;99118.13;10350190;28;20076;-72
2022/12/22 21:58:23;;;;;;;12.70;5.00;;;;;;;10.32;100.00;99126.06;10352001;28;20064;-71
2022/12/22 22:03:24;;;;;;;9.88;4.85;;;;;;;10.18;100.00;99119.44;10356051;28;20045;-72
2022/12/22 22:08:26;;;;;;;9.00;4.45;;;;;;;10.32;100.00;99132.22;10351718;28;20053;-73
2022/12/22 22:13:27;;;;;;;10.10;4.70;;;;;;;10.19;100.00;99119.28;10350263;28;20053;-72
2022/12/22 22:18:28;;;;;;;7.18;4.40;;;;;;;10.17;100.00;99113.28;10356362;28;20060;-71
2022/12/22 22:23:30;;;;;;;9.45;4.75;;;;;;;10.18;100.00;99114.13;10349652;28;20064;-72
2022/12/22 22:28:32;;;;;;;8.73;4.95;;;;;;;10.17;100.00;99115.09;10334323;28;20796;-71
2022/12/22 22:33:33;;;;;;;9.48;5.20;;;;;;;10.14;100.00;99096.78;10348550;28;20062;-71
2022/12/22 22:38:36;;;;;;;9.63;4.93;;;;;;;10.17;100.00;99093.81;10348952;28;20080;-72
2022/12/22 22:43:37;;;;;;;6.57;4.15;;;;;;;10.15;100.00;99088.66;10347867;28;20057;-71
2022/12/22 22:48:39;;;;;;;9.10;4.28;;;;;;;10.21;100.00;99077.41;10348616;28;20518;-70
2022/12/22 22:53:40;;;;;;;7.72;5.07;;;;;;;10.14;100.00;99081.66;10348644;28;20054;-72
2022/12/22 22:58:42;;;;;;;7.75;4.85;;;;;;;10.12;100.00;99088.97;10348301;28;21129;-69
2022/12/22 23:03:43;;;;;;;8.75;5.07;;;;;;;10.11;100.00;99086.44;10345085;28;20175;-70
2022/12/22 23:08:47;;;;;;;8.13;4.32;;;;;;;10.20;100.00;99094.34;10351912;28;20057;-70
2022/12/22 23:13:48;;;;;;;8.77;4.55;;;;;;;10.14;100.00;99081.66;10351300;28;20125;-71
2022/12/22 23:18:52;;;;;;;10.07;5.60;;;;;;;10.17;100.00;99089.34;10364615;28;20376;-69
2022/12/22 23:23:55;;;;;;;7.85;4.55;;;;;;;10.20;100.00;99091.69;10360556;28;20095;-71
2022/12/22 23:28:56;;;;;;;9.02;5.30;;;;;;;10.25;100.00;99084.13;10360713;28;20061;-71
2022/12/22 23:34:04;;;;;;;7.85;5.03;;;;;;;10.26;100.00;99074.31;10341827;28;20056;-71
2022/12/22 23:39:06;;;;;;;8.07;4.65;;;;;;;10.26;100.00;99076.97;10350481;28;20464;-72
2022/12/22 23:44:07;;;;;;;5.63;4.80;;;;;;;10.21;100.00;99072.09;10348177;28;20052;-77
2022/12/22 23:49:10;;;;;;;7.38;5.57;;;;;;;10.26;100.00;99069.81;10352765;28;20045;-71
2022/12/22 23:54:14;;;;;;;5.70;4.40;;;;;;;10.25;100.00;99060.19;10344238;28;20056;-70
2022/12/22 23:59:16;;;;;;;6.32;4.90;;;;;;;10.32;100.00;99075.53;10371119;28;20053;-71
